Time;durP1;ratioP1;P1;durP2;ratioP2;P2;SDS_P1;SDS_P2;PMS_P1;PMS_P2;Temp;Humidity;BMP_temperature;BMP_pressure;BME280_temperature;BME280_humidity;BME280_pressure;Samples;Min_cycle;Max_cycle;Signal;HPM_P1;HPM_P2
2021/08/15 00:01:50;;;;;;;;;;;;;;;22.85;28.35;98288.25;5094047;28;758;-86
2021/08/15 00:04:16;;;;;;;;;;;;;;;22.83;28.69;98280.16;5077414;28;983;-87
2021/08/15 00:06:42;;;;;;;;;;;;;;;22.99;28.16;98281.41;5076644;28;1305;-86
2021/08/15 00:09:07;;;;;;;;;;;;;;;22.88;28.40;98276.81;5077424;28;1256;-86
2021/08/15 00:11:33;;;;;;;;;;;;;;;22.81;28.64;98276.19;5077163;28;641;-87
2021/08/15 00:14:00;;;;;;;;;;;;;;;22.83;28.74;98279.38;5076842;28;1236;-86
2021/08/15 00:16:25;;;;;;;;;;;;;;;22.95;28.38;98280.69;5076768;28;1183;-86
2021/08/15 00:18:51;;;;;;;;;;;;;;;22.95;28.41;98272.19;5076428;28;1898;-87
2021/08/15 00:21:16;;;;;;;;;;;;;;;22.91;28.49;98275.13;5093105;28;879;-87
2021/08/15 00:23:41;;;;;;;;;;;;;;;23.03;28.32;98271.53;5077522;28;1103;-86
2021/08/15 00:26:07;;;;;;;;;;;;;;;22.95;28.31;98264.50;5076978;28;1190;-87
2021/08/15 00:28:32;;;;;;;;;;;;;;;22.94;28.37;98267.75;5078065;28;1203;-87
2021/08/15 00:30:58;;;;;;;;;;;;;;;22.98;28.27;98265.63;5076836;28;1434;-87
2021/08/15 00:33:23;;;;;;;;;;;;;;;23.04;28.28;98266.66;5077759;28;1166;-87
2021/08/15 00:35:49;;;;;;;;;;;;;;;22.84;28.20;98253.38;5076518;28;1231;-87
2021/08/15 00:38:15;;;;;;;;;;;;;;;22.85;28.24;98254.19;5093493;28;1973;-87
2021/08/15 00:40:40;;;;;;;;;;;;;;;23.05;28.09;98260.56;5075694;28;1152;-86
2021/08/15 00:43:06;;;;;;;;;;;;;;;23.00;28.34;98251.75;5076504;28;1173;-86
2021/08/15 00:45:32;;;;;;;;;;;;;;;23.03;27.90;98257.34;5091888;28;630;-87
2021/08/15 00:48:05;;;;;;;;;;;;;;;22.94;28.48;98250.72;5076041;28;1288;-87
2021/08/15 00:50:31;;;;;;;;;;;;;;;23.06;28.22;98252.84;5075241;28;999;-87
2021/08/15 00:52:56;;;;;;;;;;;;;;;23.08;28.04;98253.97;5075626;28;1373;-86
2021/08/15 00:55:22;;;;;;;;;;;;;;;23.03;28.19;98248.84;5092665;28;1193;-87
2021/08/15 00:57:48;;;;;;;;;;;;;;;22.99;28.10;98253.00;5075893;28;1898;-86
2021/08/15 01:00:13;;;;;;;;;;;;;;;22.99;28.31;98253.00;5076376;28;1208;-86
2021/08/15 01:02:39;;;;;;;;;;;;;;;22.95;27.91;98252.31;5090818;28;1165;-86
2021/08/15 01:05:05;;;;;;;;;;;;;;;22.84;28.18;98244.06;5074912;28;1323;-86
2021/08/15 01:07:30;;;;;;;;;;;;;;;22.77;28.45;98242.22;5074934;28;1181;-86
2021/08/15 01:09:57;;;;;;;;;;;;;;;22.93;28.06;98251.97;5076060;28;1160;-86
2021/08/15 01:12:26;;;;;;;;;;;;;;;22.92;28.11;98239.84;5092185;28;901;-86
2021/08/15 01:14:52;;;;;;;;;;;;;;;22.86;28.35;98245.22;5075865;28;687;-86
2021/08/15 01:17:17;;;;;;;;;;;;;;;22.89;28.04;98246.38;5073526;28;1323;-85
2021/08/15 01:19:43;;;;;;;;;;;;;;;22.98;27.87;98245.75;5074708;28;1915;-86
2021/08/15 01:22:08;;;;;;;;;;;;;;;22.82;28.10;98244.53;5075305;28;955;-86
2021/08/15 01:24:34;;;;;;;;;;;;;;;22.80;28.38;98247.03;5075924;28;1177;-86
2021/08/15 01:26:59;;;;;;;;;;;;;;;22.94;28.16;98245.06;5091179;28;1240;-86
2021/08/15 01:29:25;;;;;;;;;;;;;;;23.08;27.80;98238.97;5092704;28;1109;-86
2021/08/15 01:31:51;;;;;;;;;;;;;;;23.11;27.88;98241.72;5073470;28;1232;-87
2021/08/15 01:34:16;;;;;;;;;;;;;;;22.99;27.88;98242.47;5079929;28;1342;-86
2021/08/15 01:36:42;;;;;;;;;;;;;;;22.82;28.34;98232.38;5069743;28;1294;-86
2021/08/15 01:39:07;;;;;;;;;;;;;;;22.92;28.22;98241.88;5055794;28;1979;-86
2021/08/15 01:41:33;;;;;;;;;;;;;;;22.90;27.79;98233.00;5055261;28;920;-86
2021/08/15 01:44:00;;;;;;;;;;;;;;;22.98;27.69;98235.19;5055874;28;1321;-86
2021/08/15 01:46:26;;;;;;;;;;;;;;;22.80;27.91;98232.84;5054115;28;1265;-85
2021/08/15 01:48:52;;;;;;;;;;;;;;;22.85;27.78;98229.47;5054484;28;1164;-85
2021/08/15 01:51:17;;;;;;;;;;;;;;;22.99;27.54;98233.16;5054280;28;1289;-85
2021/08/15 01:53:43;;;;;;;;;;;;;;;22.79;27.84;98234.06;5072956;28;674;-86
2021/08/15 01:56:08;;;;;;;;;;;;;;;22.79;27.78;98234.06;5071348;28;710;-86
2021/08/15 01:58:34;;;;;;;;;;;;;;;22.93;27.78;98230.06;5059066;28;1953;-87
2021/08/15 02:01:00;;;;;;;;;;;;;;;22.87;27.61;98232.63;5075335;28;925;-86
2021/08/15 02:03:26;;;;;;;;;;;;;;;22.75;27.98;98233.38;5058443;28;1179;-86
2021/08/15 02:05:51;;;;;;;;;;;;;;;22.95;27.41;98226.78;5058718;28;1317;-87
2021/08/15 02:08:16;;;;;;;;;;;;;;;22.86;27.84;98228.22;5104127;28;1266;-86
2021/08/15 02:10:42;;;;;;;;;;;;;;;23.01;27.35;98230.69;5042252;28;1233;-87
2021/08/15 02:13:08;;;;;;;;;;;;;;;22.65;27.92;98234.47;5059485;28;1172;-86
2021/08/15 02:15:34;;;;;;;;;;;;;;;22.75;27.95;98227.72;5057591;28;1280;-87
2021/08/15 02:18:00;;;;;;;;;;;;;;;22.81;28.04;98225.91;5066843;28;1883;-86
2021/08/15 02:20:26;;;;;;;;;;;;;;;22.70;28.21;98231.09;5058271;28;873;-86
2021/08/15 02:22:51;;;;;;;;;;;;;;;22.83;27.85;98233.97;5058084;28;1133;-87
2021/08/15 02:25:17;;;;;;;;;;;;;;;22.79;28.04;98234.06;5057858;28;1278;-86
2021/08/15 02:27:42;;;;;;;;;;;;;;;22.69;28.13;98229.50;5058594;28;1195;-86
2021/08/15 02:30:09;;;;;;;;;;;;;;;22.84;28.02;98238.41;5068089;28;1233;-87
2021/08/15 02:32:35;;;;;;;;;;;;;;;22.80;28.02;98230.00;5044781;28;1307;-86
2021/08/15 02:35:00;;;;;;;;;;;;;;;22.80;27.68;98230.00;5100326;28;937;-86
2021/08/15 02:37:26;;;;;;;;;;;;;;;22.83;27.73;98233.97;5091149;28;1240;-86
2021/08/15 02:39:52;;;;;;;;;;;;;;;22.98;27.51;98235.19;5091507;28;1901;-86
2021/08/15 02:42:18;;;;;;;;;;;;;;;22.80;27.69;98247.03;5103240;28;1211;-86
2021/08/15 02:44:44;;;;;;;;;;;;;;;22.83;27.86;98243.28;5091476;28;1264;-87
2021/08/15 02:47:10;;;;;;;;;;;;;;;22.75;27.91;98239.06;5101795;28;1282;-87
2021/08/15 02:49:36;;;;;;;;;;;;;;;22.76;27.64;98229.31;5091442;28;1243;-86
2021/08/15 02:52:02;;;;;;;;;;;;;;;22.81;27.73;98240.09;5100647;28;658;-87
2021/08/15 02:54:28;;;;;;;;;;;;;;;22.65;27.86;98240.16;5074916;28;1304;-87
2021/08/15 02:56:54;;;;;;;;;;;;;;;22.83;27.72;98236.81;5088453;28;1285;-82
2021/08/15 02:59:19;;;;;;;;;;;;;;;22.74;27.89;98243.16;5101399;28;1898;-87
2021/08/15 03:01:44;;;;;;;;;;;;;;;22.80;27.71;98238.50;5091708;28;898;-86
2021/08/15 03:04:10;;;;;;;;;;;;;;;22.86;27.53;98236.72;5102425;28;1097;-87
2021/08/15 03:06:35;;;;;;;;;;;;;;;22.92;27.33;98239.03;5091517;28;769;-86
2021/08/15 03:09:01;;;;;;;;;;;;;;;22.59;27.74;98237.06;5100771;28;909;-86
2021/08/15 03:11:26;;;;;;;;;;;;;;;22.86;27.29;98239.56;5090657;28;1179;-87
2021/08/15 03:13:52;;;;;;;;;;;;;;;22.80;27.54;98235.69;5090471;28;1195;-87
2021/08/15 03:16:18;;;;;;;;;;;;;;;22.86;27.49;98242.41;5102045;28;1277;-87
2021/08/15 03:18:43;;;;;;;;;;;;;;;22.91;27.28;98234.63;5091275;28;1898;-86
2021/08/15 03:21:09;;;;;;;;;;;;;;;22.76;27.82;98239.84;5101534;28;1276;-87
2021/08/15 03:23:34;;;;;;;;;;;;;;;22.93;27.67;98243.47;5091471;28;1255;-86
2021/08/15 03:26:01;;;;;;;;;;;;;;;22.78;27.45;98231.69;5099672;28;1060;-87
2021/08/15 03:28:28;;;;;;;;;;;;;;;22.90;27.44;98238.69;5091759;28;848;-87
2021/08/15 03:30:53;;;;;;;;;;;;;;;22.81;27.58;98248.63;5106541;28;863;-87
2021/08/15 03:33:19;;;;;;;;;;;;;;;22.87;27.27;98241.16;5116703;28;1039;-86
2021/08/15 03:35:44;;;;;;;;;;;;;;;22.73;27.54;98235.84;5075209;28;894;-87
2021/08/15 03:38:10;;;;;;;;;;;;;;;22.84;27.66;98235.56;5057488;28;1947;-86
2021/08/15 03:40:35;;;;;;;;;;;;;;;22.88;27.61;98237.09;5091179;28;1245;-87
2021/08/15 03:43:01;;;;;;;;;;;;;;;22.78;27.50;98254.38;5077866;28;1137;-87
2021/08/15 03:45:27;;;;;;;;;;;;;;;22.76;27.61;98246.31;5057382;28;1192;-87
2021/08/15 03:47:53;;;;;;;;;;;;;;;22.88;27.34;98248.44;5094052;28;1173;-87
2021/08/15 03:50:18;;;;;;;;;;;;;;;22.71;27.52;98248.91;5057461;28;1250;-87
2021/08/15 03:52:44;;;;;;;;;;;;;;;22.70;27.87;98253.00;5109011;28;1161;-87
2021/08/15 03:55:11;;;;;;;;;;;;;;;22.72;27.74;98251.28;5056700;28;1227;-87
2021/08/15 03:57:40;;;;;;;;;;;;;;;22.66;27.66;98252.28;5107730;28;1322;-87
2021/08/15 04:00:06;;;;;;;;;;;;;;;22.75;27.55;98239.06;5057255;28;1907;-87
2021/08/15 04:02:31;;;;;;;;;;;;;;;22.83;27.41;98245.31;5090946;28;1178;-88
2021/08/15 04:04:56;;;;;;;;;;;;;;;22.80;27.63;98235.69;5093729;28;1162;-87
2021/08/15 04:07:22;;;;;;;;;;;;;;;22.90;27.28;98238.69;5073405;28;1167;-87
2021/08/15 04:09:47;;;;;;;;;;;;;;;22.81;27.68;98242.94;5076160;28;1467;-87
2021/08/15 04:12:15;;;;;;;;;;;;;;;22.95;27.22;98241.78;5077369;28;1228;-87
2021/08/15 04:14:40;;;;;;;;;;;;;;;22.63;28.00;98242.63;5058054;28;1290;-87
2021/08/15 04:17:06;;;;;;;;;;;;;;;22.86;27.31;98245.22;5093826;28;1197;-86
2021/08/15 04:19:32;;;;;;;;;;;;;;;22.93;27.51;98234.94;5076744;28;1973;-87
2021/08/15 04:21:58;;;;;;;;;;;;;;;22.70;27.94;98241.66;5076880;28;1179;-87
2021/08/15 04:24:27;;;;;;;;;;;;;;;22.83;27.59;98245.31;5094152;28;611;-87
2021/08/15 04:26:52;;;;;;;;;;;;;;;22.83;27.69;98254.63;5126310;28;971;-87
2021/08/15 04:29:18;;;;;;;;;;;;;;;22.80;27.53;98255.53;5076646;28;899;-87
2021/08/15 04:31:46;;;;;;;;;;;;;;;22.75;27.52;98256.09;5091960;28;1114;-86
2021/08/15 04:34:12;;;;;;;;;;;;;;;22.83;27.73;98246.13;5056590;28;1212;-86
2021/08/15 04:36:37;;;;;;;;;;;;;;;22.90;27.59;98250.03;5039128;28;1270;-87
2021/08/15 04:39:03;;;;;;;;;;;;;;;22.90;27.45;98247.19;5073063;28;1968;-87
2021/08/15 04:41:29;;;;;;;;;;;;;;;22.83;27.87;98251.78;5055536;28;1060;-86
2021/08/15 04:43:55;;;;;;;;;;;;;;;22.84;27.50;98247.69;5055828;28;854;-86
2021/08/15 04:46:20;;;;;;;;;;;;;;;22.93;27.47;98254.81;5055661;28;1210;-87
2021/08/15 04:48:46;;;;;;;;;;;;;;;22.82;27.90;98244.53;5055740;28;779;-86
2021/08/15 04:51:11;;;;;;;;;;;;;;;22.82;27.70;98249.41;5055666;28;1174;-86
2021/08/15 04:53:37;;;;;;;;;;;;;;;22.69;27.97;98246.53;5056263;28;1158;-86
2021/08/15 04:56:03;;;;;;;;;;;;;;;22.86;27.77;98250.91;5054543;28;1258;-87
2021/08/15 04:58:29;;;;;;;;;;;;;;;22.81;28.02;98248.63;5072118;28;1875;-87
2021/08/15 05:00:54;;;;;;;;;;;;;;;23.07;27.60;98248.75;5055082;28;1182;-86
2021/08/15 05:03:20;;;;;;;;;;;;;;;23.03;27.56;98248.03;5055409;28;1167;-86
2021/08/15 05:05:46;;;;;;;;;;;;;;;22.91;27.92;98255.28;5038332;28;1239;-85
2021/08/15 05:08:12;;;;;;;;;;;;;;;22.85;28.01;98249.31;5055470;28;1236;-86
2021/08/15 05:10:39;;;;;;;;;;;;;;;22.73;27.98;98258.56;5054817;28;984;-86
2021/08/15 05:13:04;;;;;;;;;;;;;;;22.76;28.19;98246.31;5055180;28;1308;-86
2021/08/15 05:15:30;;;;;;;;;;;;;;;22.84;27.92;98252.59;5071562;28;921;-87
2021/08/15 05:18:02;;;;;;;;;;;;;;;22.92;28.07;98253.22;5055879;28;1947;-86
2021/08/15 05:20:28;;;;;;;;;;;;;;;22.77;28.14;98252.78;5055635;28;1222;-86
2021/08/15 05:22:54;;;;;;;;;;;;;;;22.84;28.18;98267.56;5055362;28;1198;-87
2021/08/15 05:25:19;;;;;;;;;;;;;;;22.79;28.18;98261.63;5038691;28;1355;-87
2021/08/15 05:27:45;;;;;;;;;;;;;;;22.82;28.02;98267.22;5089411;28;841;-87
2021/08/15 05:30:10;;;;;;;;;;;;;;;22.90;27.86;98269.88;5071685;28;1354;-87
2021/08/15 05:32:36;;;;;;;;;;;;;;;22.85;28.12;98255.00;5063559;28;1111;-86
2021/08/15 05:35:02;;;;;;;;;;;;;;;22.93;28.00;98261.28;5079732;28;773;-86
2021/08/15 05:37:27;;;;;;;;;;;;;;;22.90;27.88;98256.53;5096184;28;709;-87
2021/08/15 05:39:53;;;;;;;;;;;;;;;22.98;27.96;98259.94;5079103;28;1914;-87
2021/08/15 05:42:18;;;;;;;;;;;;;;;22.97;28.10;98249.84;5079218;28;1291;-87
2021/08/15 05:44:44;;;;;;;;;;;;;;;22.83;28.15;98262.34;5079984;28;1170;-87
2021/08/15 05:47:09;;;;;;;;;;;;;;;22.76;28.13;98260.50;5078680;28;1279;-86
2021/08/15 05:49:35;;;;;;;;;;;;;;;22.79;28.29;98261.63;5095732;28;1319;-87
2021/08/15 05:52:01;;;;;;;;;;;;;;;22.99;27.83;98261.53;5079538;28;1136;-86
2021/08/15 05:54:27;;;;;;;;;;;;;;;22.88;28.21;98259.78;5095793;28;905;-87
2021/08/15 05:56:53;;;;;;;;;;;;;;;22.95;27.97;98269.34;5079191;28;1291;-86
2021/08/15 05:59:18;;;;;;;;;;;;;;;23.07;28.08;98260.88;5079142;28;1996;-87
2021/08/15 06:01:44;;;;;;;;;;;;;;;22.93;28.28;98258.44;5078862;28;1166;-87
2021/08/15 06:04:09;;;;;;;;;;;;;;;22.95;28.31;98258.00;5079597;28;1298;-87
2021/08/15 06:06:35;;;;;;;;;;;;;;;22.73;28.38;98263.44;5079225;28;856;-86
2021/08/15 06:09:00;;;;;;;;;;;;;;;22.73;28.52;98261.38;5079139;28;1194;-87
2021/08/15 06:11:26;;;;;;;;;;;;;;;22.76;28.54;98271.06;5078320;28;932;-87
2021/08/15 06:13:52;;;;;;;;;;;;;;;22.74;28.72;98265.84;5096057;28;1158;-87
2021/08/15 06:16:18;;;;;;;;;;;;;;;22.94;28.21;98267.75;5078690;28;1137;-86
2021/08/15 06:18:44;;;;;;;;;;;;;;;22.83;28.39;98268.00;5079053;28;1883;-87
2021/08/15 06:21:10;;;;;;;;;;;;;;;22.73;28.49;98269.91;5078472;28;1185;-87
2021/08/15 06:23:35;;;;;;;;;;;;;;;22.68;28.53;98267.59;5078711;28;1086;-86
2021/08/15 06:26:01;;;;;;;;;;;;;;;22.79;28.43;98267.31;5078173;28;1297;-87
2021/08/15 06:28:27;;;;;;;;;;;;;;;22.99;28.15;98250.19;5079651;28;1244;-86
2021/08/15 06:30:52;;;;;;;;;;;;;;;22.91;28.60;98263.00;5078195;28;1290;-87
2021/08/15 06:33:18;;;;;;;;;;;;;;;23.00;28.21;98263.13;5078797;28;1000;-86
2021/08/15 06:35:43;;;;;;;;;;;;;;;22.97;28.28;98261.19;5112787;28;784;-87
2021/08/15 06:38:10;;;;;;;;;;;;;;;22.90;28.50;98255.69;5095524;28;1893;-86
2021/08/15 06:40:35;;;;;;;;;;;;;;;23.00;28.22;98254.59;5078184;28;1138;-87
2021/08/15 06:43:05;;;;;;;;;;;;;;;22.95;28.32;98258.00;5077889;28;1284;-87
2021/08/15 06:45:30;;;;;;;;;;;;;;;22.91;28.30;98257.31;5078410;28;1152;-86
2021/08/15 06:47:56;;;;;;;;;;;;;;;23.18;28.15;98259.78;5078299;28;610;-87
2021/08/15 06:50:21;;;;;;;;;;;;;;;23.12;28.32;98256.72;5078295;28;1289;-87
2021/08/15 06:52:47;;;;;;;;;;;;;;;22.95;28.26;98269.34;5077214;28;1368;-87
2021/08/15 06:55:12;;;;;;;;;;;;;;;22.95;28.67;98263.66;5078304;28;1270;-87
2021/08/15 06:57:37;;;;;;;;;;;;;;;23.04;28.27;98263.81;5094740;28;1290;-86
2021/08/15 07:00:04;;;;;;;;;;;;;;;22.99;28.44;98253.00;5078828;28;1890;-87
2021/08/15 07:02:30;;;;;;;;;;;;;;;22.98;28.60;98268.47;5077317;28;1126;-86
2021/08/15 07:04:55;;;;;;;;;;;;;;;23.00;28.36;98263.13;5077716;28;1293;-87
2021/08/15 07:07:22;;;;;;;;;;;;;;;22.95;28.49;98266.50;5077419;28;1175;-86
2021/08/15 07:09:47;;;;;;;;;;;;;;;22.96;28.54;98265.28;5078033;28;1175;-87
2021/08/15 07:12:13;;;;;;;;;;;;;;;23.03;28.47;98265.06;5077482;28;1239;-86
2021/08/15 07:14:41;;;;;;;;;;;;;;;22.91;28.85;98280.00;5078258;28;1239;-86
2021/08/15 07:17:07;;;;;;;;;;;;;;;23.03;28.42;98268.69;5094600;28;756;-86
2021/08/15 07:19:32;;;;;;;;;;;;;;;23.25;28.04;98270.91;5078447;28;1986;-86
2021/08/15 07:21:58;;;;;;;;;;;;;;;23.28;27.81;98270.84;5077593;28;1292;-87
2021/08/15 07:24:23;;;;;;;;;;;;;;;23.11;28.25;98267.25;5094353;28;990;-86
2021/08/15 07:26:49;;;;;;;;;;;;;;;22.94;28.72;98279.09;5094200;28;840;-87
2021/08/15 07:29:15;;;;;;;;;;;;;;;22.93;28.80;98277.50;5078891;28;1190;-87
2021/08/15 07:31:40;;;;;;;;;;;;;;;22.92;28.57;98275.94;5076868;28;1280;-86
2021/08/15 07:34:06;;;;;;;;;;;;;;;22.87;28.74;98275.19;5077490;28;1079;-87
2021/08/15 07:36:32;;;;;;;;;;;;;;;22.93;28.58;98281.16;5093983;28;1073;-86
2021/08/15 07:38:57;;;;;;;;;;;;;;;22.99;28.41;98281.41;5077023;28;1894;-87
2021/08/15 07:41:23;;;;;;;;;;;;;;;23.08;28.57;98284.38;5077079;28;1177;-87
2021/08/15 07:43:48;;;;;;;;;;;;;;;23.01;28.63;98268.38;5077979;28;1287;-87
2021/08/15 07:46:14;;;;;;;;;;;;;;;23.01;28.78;98256.22;5077082;28;1257;-87
2021/08/15 07:48:40;;;;;;;;;;;;;;;22.93;29.06;98281.16;5078041;28;1170;-86
2021/08/15 07:51:05;;;;;;;;;;;;;;;22.94;29.04;98285.56;5076588;28;1191;-86
2021/08/15 07:53:31;;;;;;;;;;;;;;;22.90;28.84;98284.06;5076361;28;1299;-87
2021/08/15 07:55:56;;;;;;;;;;;;;;;22.97;28.96;98278.22;5077368;28;1251;-86
2021/08/15 07:58:22;;;;;;;;;;;;;;;22.98;28.62;98274.91;5093913;28;1882;-86
2021/08/15 08:00:47;;;;;;;;;;;;;;;22.97;28.89;98278.22;5076767;28;873;-86
2021/08/15 08:03:13;;;;;;;;;;;;;;;23.05;28.86;98273.91;5077379;28;835;-86
2021/08/15 08:05:39;;;;;;;;;;;;;;;22.81;29.26;98279.81;5076115;28;1333;-86
2021/08/15 08:08:05;;;;;;;;;;;;;;;22.92;29.13;98264.56;5076283;28;1162;-87
2021/08/15 08:10:30;;;;;;;;;;;;;;;23.02;28.82;98274.84;5076486;28;1176;-86
2021/08/15 08:12:56;;;;;;;;;;;;;;;23.14;28.64;98271.22;5093606;28;615;-86
2021/08/15 08:15:21;;;;;;;;;;;;;;;23.07;28.88;98265.78;5076879;28;930;-86
2021/08/15 08:17:47;;;;;;;;;;;;;;;23.04;28.85;98269.50;5077305;28;1169;-87
2021/08/15 08:20:12;;;;;;;;;;;;;;;23.03;28.69;98265.06;5092156;28;1905;-86
2021/08/15 08:22:38;;;;;;;;;;;;;;;23.07;28.85;98266.56;5093334;28;1003;-87
2021/08/15 08:25:04;;;;;;;;;;;;;;;23.03;28.89;98265.06;5076435;28;1199;-86
2021/08/15 08:27:29;;;;;;;;;;;;;;;23.09;28.89;98269.75;5092967;28;1324;-86
2021/08/15 08:29:55;;;;;;;;;;;;;;;22.98;28.95;98263.56;5076851;28;1301;-86
2021/08/15 08:32:21;;;;;;;;;;;;;;;23.01;29.06;98256.22;5076128;28;1028;-86
2021/08/15 08:34:46;;;;;;;;;;;;;;;23.16;28.75;98260.25;5092718;28;985;-86
2021/08/15 08:37:12;;;;;;;;;;;;;;;23.12;28.68;98265.22;5075381;28;953;-86
2021/08/15 08:39:37;;;;;;;;;;;;;;;23.07;28.78;98257.25;5076354;28;1914;-86
2021/08/15 08:42:03;;;;;;;;;;;;;;;23.02;28.74;98266.31;5075824;28;1277;-85
2021/08/15 08:44:30;;;;;;;;;;;;;;;23.08;28.87;98256.00;5093325;28;1130;-87
2021/08/15 08:47:00;;;;;;;;;;;;;;;23.17;28.55;98256.16;5075338;28;1299;-86
2021/08/15 08:49:26;;;;;;;;;;;;;;;23.13;28.79;98242.06;5075916;28;1213;-87
2021/08/15 08:51:51;;;;;;;;;;;;;;;23.10;28.86;98247.81;5075220;28;1299;-87
2021/08/15 08:54:17;;;;;;;;;;;;;;;23.08;28.57;98245.44;5093089;28;1308;-87
2021/08/15 08:56:42;;;;;;;;;;;;;;;23.02;28.86;98247.25;5075849;28;1171;-86
2021/08/15 08:59:08;;;;;;;;;;;;;;;22.87;28.93;98252.50;5092379;28;1961;-86
2021/08/15 09:01:33;;;;;;;;;;;;;;;22.97;28.85;98249.84;5075549;28;1300;-87
2021/08/15 09:03:59;;;;;;;;;;;;;;;22.98;28.64;98248.59;5075982;28;1138;-87
2021/08/15 09:06:28;;;;;;;;;;;;;;;23.03;28.81;98248.84;5074142;28;1283;-86
2021/08/15 09:08:53;;;;;;;;;;;;;;;22.84;29.29;98242.03;5074552;28;1217;-86
2021/08/15 09:11:23;;;;;;;;;;;;;;;23.09;28.87;98234.88;5075260;28;1324;-86
2021/08/15 09:14:00;;;;;;;;;;;;;;;23.02;29.11;98237.94;5075090;28;1437;-86
2021/08/15 09:16:26;;;;;;;;;;;;;;;23.02;28.89;98241.56;5109627;28;758;-86
2021/08/15 09:18:51;;;;;;;;;;;;;;;23.00;29.16;98234.72;5075660;28;1906;-86
2021/08/15 09:21:29;;;;;;;;;;;;;;;22.97;29.09;98244.16;5075130;28;1166;-86
2021/08/15 09:23:58;;;;;;;;;;;;;;;23.00;29.13;98237.56;5076142;28;1275;-86
2021/08/15 09:26:24;;;;;;;;;;;;;;;22.90;29.32;98236.66;5075174;28;873;-86
2021/08/15 09:28:49;;;;;;;;;;;;;;;22.91;29.12;98234.63;5076061;28;873;-86
2021/08/15 09:31:20;;;;;;;;;;;;;;;23.05;29.05;98242.69;5075058;28;1169;-86
2021/08/15 09:33:45;;;;;;;;;;;;;;;23.07;29.11;98231.72;5075144;28;1237;-87
2021/08/15 09:36:11;;;;;;;;;;;;;;;23.13;28.87;98235.59;5074497;28;1158;-85
2021/08/15 09:38:45;;;;;;;;;;;;;;;23.03;29.12;98223.28;5093108;28;1890;-86
2021/08/15 09:41:24;;;;;;;;;;;;;;;22.99;29.02;98230.31;5074780;28;1172;-86
2021/08/15 09:43:49;;;;;;;;;;;;;;;23.00;29.20;98220.53;5074750;28;1352;-86
2021/08/15 09:46:15;;;;;;;;;;;;;;;22.99;29.17;98222.59;5075062;28;846;-86
2021/08/15 09:48:40;;;;;;;;;;;;;;;23.11;28.91;98221.06;5091311;28;996;-86
2021/08/15 09:51:19;;;;;;;;;;;;;;;23.16;28.71;98222.53;5074702;28;1266;-87
2021/08/15 09:53:46;;;;;;;;;;;;;;;23.25;28.87;98220.63;5075152;28;814;-86
2021/08/15 09:56:12;;;;;;;;;;;;;;;23.10;29.09;98219.44;5074512;28;1303;-86
2021/08/15 09:58:37;;;;;;;;;;;;;;;23.07;29.06;98220.34;5075913;28;1882;-86
2021/08/15 10:01:04;;;;;;;;;;;;;;;23.12;29.14;98214.94;5091431;28;865;-86
2021/08/15 10:03:29;;;;;;;;;;;;;;;23.08;29.10;98210.59;5075475;28;1145;-86
2021/08/15 10:05:56;;;;;;;;;;;;;;;23.00;29.41;98203.53;5091200;28;894;-86
2021/08/15 10:08:22;;;;;;;;;;;;;;;23.04;28.98;98204.22;5092586;28;930;-86
2021/08/15 10:10:47;;;;;;;;;;;;;;;22.99;29.03;98202.72;5091813;28;715;-86
2021/08/15 10:13:13;;;;;;;;;;;;;;;22.97;29.47;98198.75;5091880;28;1352;-86
2021/08/15 10:15:39;;;;;;;;;;;;;;;23.11;28.92;98195.50;5074712;28;1183;-86
2021/08/15 10:18:05;;;;;;;;;;;;;;;23.06;29.27;98191.19;5092100;28;1910;-87
2021/08/15 10:20:31;;;;;;;;;;;;;;;23.08;29.19;98199.25;5078448;28;1444;-86
2021/08/15 10:23:12;;;;;;;;;;;;;;;23.20;28.96;98195.63;5061919;28;1184;-86
2021/08/15 10:25:41;;;;;;;;;;;;;;;23.14;29.01;98194.59;5095481;28;858;-86
2021/08/15 10:28:07;;;;;;;;;;;;;;;23.06;29.33;98190.38;5062060;28;1320;-86
2021/08/15 10:30:33;;;;;;;;;;;;;;;23.12;29.07;98189.38;5061397;28;1241;-86
2021/08/15 10:32:58;;;;;;;;;;;;;;;23.12;28.94;98183.69;5094887;28;1166;-85
2021/08/15 10:35:27;;;;;;;;;;;;;;;23.26;28.98;98181.66;5078093;28;1167;-87
2021/08/15 10:38:05;;;;;;;;;;;;;;;23.27;28.94;98189.75;5094693;28;1298;-86
2021/08/15 10:40:42;;;;;;;;;;;;;;;23.24;29.00;98182.13;5074912;28;642;-86
2021/08/15 10:43:31;;;;;;;;;;;;;;;23.18;29.06;98168.94;5095424;28;1253;-86
2021/08/15 10:46:08;;;;;;;;;;;;;;;23.02;29.29;98173.47;5077703;28;745;-86
2021/08/15 10:48:54;;;;;;;;;;;;;;;23.04;29.29;98170.16;5095328;28;689;-86
2021/08/15 10:51:38;;;;;;;;;;;;;;;23.16;29.01;98160.91;5090773;28;1233;-86
2021/08/15 10:54:03;;;;;;;;;;;;;;;23.21;28.92;98162.34;5094328;28;1238;-86
2021/08/15 10:56:47;;;;;;;;;;;;;;;23.11;29.16;98155.78;5060751;28;1156;-86
2021/08/15 10:59:32;;;;;;;;;;;;;;;23.16;29.21;98149.53;5077611;28;1992;-86
2021/08/15 11:02:11;;;;;;;;;;;;;;;23.03;29.35;98154.38;5077625;28;1115;-86
2021/08/15 11:04:36;;;;;;;;;;;;;;;23.18;29.20;98158.38;5077862;28;860;-86
2021/08/15 11:07:02;;;;;;;;;;;;;;;23.06;29.34;98156.34;5076706;28;1143;-86
2021/08/15 11:09:46;;;;;;;;;;;;;;;22.99;29.53;98153.69;5090739;28;839;-86
2021/08/15 11:12:12;;;;;;;;;;;;;;;23.08;29.21;98154.63;5111617;28;606;-85
2021/08/15 11:14:51;;;;;;;;;;;;;;;23.19;29.07;98159.19;5090673;28;1292;-85
2021/08/15 11:17:17;;;;;;;;;;;;;;;23.00;29.35;98146.75;5074472;28;1167;-86
2021/08/15 11:19:42;;;;;;;;;;;;;;;23.06;29.36;98145.78;5075149;28;1971;-86
2021/08/15 11:22:38;;;;;;;;;;;;;;;23.07;29.16;98146.56;5073007;28;910;-85
2021/08/15 11:25:04;;;;;;;;;;;;;;;23.09;29.02;98142.00;5077651;28;1186;-85
2021/08/15 11:27:33;;;;;;;;;;;;;;;23.16;28.79;98143.88;5056804;28;1335;-85
2021/08/15 11:30:01;;;;;;;;;;;;;;;23.22;29.01;98136.38;5093149;28;1087;-85
2021/08/15 11:32:30;;;;;;;;;;;;;;;23.08;29.04;98136.81;5073303;28;1248;-85
2021/08/15 11:35:11;;;;;;;;;;;;;;;23.18;29.09;98135.69;5076328;28;1147;-85
2021/08/15 11:37:41;;;;;;;;;;;;;;;23.08;29.25;98131.91;5090447;28;895;-85
2021/08/15 11:40:15;;;;;;;;;;;;;;;23.31;29.02;98133.66;5072370;28;1910;-85
2021/08/15 11:42:42;;;;;;;;;;;;;;;23.28;29.05;98123.19;5074266;28;1302;-85
2021/08/15 11:45:08;;;;;;;;;;;;;;;23.23;29.19;98120.91;5059119;28;1261;-86
2021/08/15 11:47:37;;;;;;;;;;;;;;;23.31;28.81;98122.31;5072368;28;1161;-86
2021/08/15 11:50:13;;;;;;;;;;;;;;;23.14;28.92;98120.78;5071990;28;1139;-86
2021/08/15 11:52:38;;;;;;;;;;;;;;;23.14;29.49;98123.63;5056461;28;1297;-86
2021/08/15 11:55:05;;;;;;;;;;;;;;;23.01;29.39;98126.47;5088663;28;1237;-86
2021/08/15 11:58:06;;;;;;;;;;;;;;;23.17;29.26;98113.44;5072027;28;1315;-85
2021/08/15 12:00:32;;;;;;;;;;;;;;;23.31;28.95;98116.63;5031886;28;1902;-86
2021/08/15 12:03:04;;;;;;;;;;;;;;;23.30;28.71;98115.00;5060205;28;1164;-86
2021/08/15 12:05:29;;;;;;;;;;;;;;;23.14;29.01;98106.59;5072593;28;1195;-86
2021/08/15 12:08:08;;;;;;;;;;;;;;;23.15;29.31;98111.03;5075439;28;1229;-86
2021/08/15 12:10:40;;;;;;;;;;;;;;;23.25;28.93;98095.69;5072308;28;1188;-86
2021/08/15 12:13:09;;;;;;;;;;;;;;;23.24;29.07;98105.47;5089086;28;658;-86
2021/08/15 12:15:35;;;;;;;;;;;;;;;23.20;29.26;98093.44;5072333;28;1341;-86
2021/08/15 12:18:00;;;;;;;;;;;;;;;23.25;29.12;98092.06;5110286;28;765;-86
2021/08/15 12:20:25;;;;;;;;;;;;;;;23.27;29.19;98090.38;5055621;28;1987;-86
2021/08/15 12:22:51;;;;;;;;;;;;;;;23.14;29.25;98089.56;5058077;28;1170;-85
2021/08/15 12:25:20;;;;;;;;;;;;;;;23.21;29.09;98094.22;5072185;28;1193;-86
2021/08/15 12:27:45;;;;;;;;;;;;;;;23.22;28.95;98096.63;5057586;28;1270;-86
2021/08/15 12:30:11;;;;;;;;;;;;;;;23.21;29.22;98095.03;5066681;28;1179;-86
2021/08/15 12:32:36;;;;;;;;;;;;;;;23.26;29.16;98091.63;5058624;28;1334;-86
2021/08/15 12:35:02;;;;;;;;;;;;;;;23.22;29.29;98099.47;5072143;28;1332;-84
2021/08/15 12:37:48;;;;;;;;;;;;;;;23.01;29.54;98091.63;5072072;28;956;-86
2021/08/15 12:40:14;;;;;;;;;;;;;;;23.04;29.26;98099.22;5087559;28;1946;-85
2021/08/15 12:42:41;;;;;;;;;;;;;;;23.16;29.10;98097.63;5056422;28;1244;-86
2021/08/15 12:45:07;;;;;;;;;;;;;;;23.29;28.75;98096.38;5071504;28;1056;-86
2021/08/15 12:47:34;;;;;;;;;;;;;;;23.26;29.17;98097.31;5054895;28;1192;-86
2021/08/15 12:50:03;;;;;;;;;;;;;;;23.22;28.82;98101.50;5071009;28;917;-86
2021/08/15 12:52:38;;;;;;;;;;;;;;;23.23;29.30;98098.22;5055295;28;1179;-86
2021/08/15 12:55:05;;;;;;;;;;;;;;;23.15;29.42;98085.47;5054589;28;1194;-86
2021/08/15 12:57:31;;;;;;;;;;;;;;;23.13;29.38;98088.78;5088232;28;633;-86
2021/08/15 12:59:56;;;;;;;;;;;;;;;23.15;29.40;98096.84;5055295;28;1975;-86